Terminal Aerodrome Forecast
Issued by NWS Cleveland, OH

Home | Current Version | Previous Version | Graphics & Text | Print | Product List | Glossary On
Versions: 1 2 3 4 5 6 7 8 9 10 11 12 13 14 15
037
FTUS41 KCLE 182351
TAFCAK
TAF
KCAK 182351Z 1900/1924 15008KT P6SM BKN250
     FM191100 18010G18KT P6SM -RA OVC025 WS020/21040KT
     FM191500 19012KT 2SM -RA OVC003
     FM191900 20012G20KT P6SM OVC008=

USA.gov is the U.S. government's official web portal to all federal, state and local government web resources and services.